Time;durP1;ratioP1;P1;durP2;ratioP2;P2;SDS_P1;SDS_P2;PMS_P1;PMS_P2;Temp;Humidity;BMP_temperature;BMP_pressure;BME280_temperature;BME280_humidity;BME280_pressure;Samples;Min_cycle;Max_cycle;Signal;HPM_P1;HPM_P2
2023/04/15 00:00:55;;;;;;;58.97;36.10;;;;;;;4.48;100.00;99910.16;4892819;29;20052;-74
2023/04/15 00:03:21;;;;;;;60.60;38.70;;;;;;;4.41;100.00;99925.81;4912107;29;20135;-73
2023/04/15 00:05:48;;;;;;;62.65;38.63;;;;;;;4.48;100.00;99918.13;4913066;29;20068;-74
2023/04/15 00:08:14;;;;;;;66.97;39.75;;;;;;;4.43;100.00;99909.75;4913724;29;20044;-74
2023/04/15 00:10:43;;;;;;;65.10;40.17;;;;;;;4.48;100.00;99915.47;4892383;29;20131;-74
2023/04/15 00:13:09;;;;;;;64.32;40.30;;;;;;;4.47;100.00;99916.47;4915765;29;20063;-74
2023/04/15 00:15:36;;;;;;;63.85;41.30;;;;;;;4.45;100.00;99915.75;4916399;29;20420;-74
2023/04/15 00:18:03;;;;;;;70.55;43.22;;;;;;;4.46;100.00;99909.47;4916347;29;20044;-74
2023/04/15 00:20:30;;;;;;;66.72;41.47;;;;;;;4.49;100.00;99901.25;4915405;29;20044;-74
2023/04/15 00:22:58;;;;;;;69.15;42.25;;;;;;;4.48;100.00;99896.88;4915736;29;20048;-74
2023/04/15 00:25:25;;;;;;;68.30;42.55;;;;;;;4.48;100.00;99899.53;4915476;29;20409;-74
2023/04/15 00:27:51;;;;;;;68.43;41.97;;;;;;;4.48;100.00;99899.53;4916213;29;20044;-74
2023/04/15 00:30:18;;;;;;;70.97;43.47;;;;;;;4.45;100.00;99899.81;4915533;29;20071;-74
2023/04/15 00:32:45;;;;;;;71.07;42.28;;;;;;;4.48;100.00;99900.38;4914923;29;20044;-74
2023/04/15 00:35:12;;;;;;;71.70;41.63;;;;;;;4.50;100.00;99897.59;4913377;29;20044;-74
2023/04/15 00:37:39;;;;;;;74.65;44.08;;;;;;;4.45;100.00;99894.50;4914288;29;20075;-73
2023/04/15 00:40:11;;;;;;;69.85;43.50;;;;;;;4.46;100.00;99898.84;4915149;29;20135;-74
2023/04/15 00:42:38;;;;;;;71.57;44.47;;;;;;;4.54;100.00;99898.97;4866681;29;20079;-73
2023/04/15 00:45:05;;;;;;;76.65;44.70;;;;;;;4.50;100.00;99903.75;4914710;29;20051;-73
2023/04/15 00:47:34;;;;;;;74.82;46.10;;;;;;;4.51;100.00;99896.59;4915395;29;20096;-73
2023/04/15 00:50:01;;;;;;;71.72;44.17;;;;;;;4.54;100.00;99893.66;4915327;29;20058;-74
2023/04/15 00:52:27;;;;;;;77.28;47.38;;;;;;;4.52;100.00;99895.63;4915588;29;20116;-73
2023/04/15 00:54:54;;;;;;;84.05;47.38;;;;;;;4.46;100.00;99893.56;4915617;29;20044;-74
2023/04/15 00:57:21;;;;;;;80.05;48.08;;;;;;;4.53;100.00;99899.97;4916256;29;20413;-74
2023/04/15 00:59:48;;;;;;;76.90;46.67;;;;;;;4.57;100.00;99880.94;4902402;29;20072;-74
2023/04/15 01:02:15;;;;;;;76.45;46.58;;;;;;;4.54;100.00;99888.34;4905839;29;20119;-74
2023/04/15 01:04:42;;;;;;;79.75;46.08;;;;;;;4.50;100.00;99892.28;4915812;29;20059;-74
2023/04/15 01:07:21;;;;;;;84.55;48.13;;;;;;;4.55;100.00;99874.09;4916460;29;20382;-74
2023/04/15 01:09:48;;;;;;;85.13;49.22;;;;;;;4.50;100.00;99890.47;4898823;29;20049;-74
2023/04/15 01:12:16;;;;;;;82.63;49.15;;;;;;;4.54;100.00;99885.69;4892423;29;20135;-74
2023/04/15 01:14:42;;;;;;;85.93;47.50;;;;;;;4.42;100.00;99871.75;4895448;29;20052;-74
2023/04/15 01:17:09;;;;;;;88.45;48.80;;;;;;;4.45;100.00;99879.44;4892803;29;20044;-74
2023/04/15 01:19:36;;;;;;;86.65;49.38;;;;;;;4.52;100.00;99885.84;4895043;29;20068;-74
2023/04/15 01:22:02;;;;;;;80.57;48.60;;;;;;;4.50;100.00;99874.53;4896376;29;20077;-74
2023/04/15 01:24:31;;;;;;;85.80;48.80;;;;;;;4.50;100.00;99879.84;4896302;29;20045;-74
2023/04/15 01:26:58;;;;;;;86.70;48.05;;;;;;;4.47;100.00;99877.47;4895885;29;20048;-74
2023/04/15 01:29:24;;;;;;;88.15;49.72;;;;;;;4.52;100.00;99877.03;4896077;29;20055;-74
2023/04/15 01:31:52;;;;;;;89.72;51.03;;;;;;;4.45;100.00;99879.44;4897169;29;20063;-74
2023/04/15 01:34:19;;;;;;;90.55;50.13;;;;;;;4.51;100.00;99872.69;4896631;29;20132;-74
2023/04/15 01:36:46;;;;;;;86.43;48.95;;;;;;;4.41;100.00;99877.19;4895862;29;20049;-74
2023/04/15 01:39:13;;;;;;;85.57;49.80;;;;;;;4.47;100.00;99873.97;4895164;29;21163;-75
2023/04/15 01:41:41;;;;;;;86.05;48.35;;;;;;;4.48;100.00;99868.50;4896039;29;20064;-74
2023/04/15 01:44:08;;;;;;;89.82;50.30;;;;;;;4.45;100.00;99876.78;4879132;29;20063;-74
2023/04/15 01:46:35;;;;;;;92.07;50.28;;;;;;;4.51;100.00;99870.88;4871642;29;20510;-75
2023/04/15 01:49:01;;;;;;;96.68;51.03;;;;;;;4.43;100.00;99869.94;4896457;29;20096;-74
2023/04/15 01:51:28;;;;;;;95.25;50.58;;;;;;;4.48;100.00;99863.19;4897089;29;20477;-74
2023/04/15 01:53:57;;;;;;;98.97;51.78;;;;;;;4.44;100.00;99876.91;4897355;29;20064;-74
2023/04/15 01:56:24;;;;;;;96.28;50.88;;;;;;;4.53;100.00;99870.75;4880240;29;20072;-75
2023/04/15 01:58:51;;;;;;;95.88;51.35;;;;;;;4.47;100.00;99866.00;4888254;29;20052;-74
2023/04/15 02:01:21;;;;;;;95.68;53.17;;;;;;;4.52;100.00;99869.06;4896913;29;20051;-75
2023/04/15 02:03:47;;;;;;;95.10;51.13;;;;;;;4.49;100.00;99872.84;4887103;29;20053;-73
2023/04/15 02:06:14;;;;;;;91.93;49.80;;;;;;;4.47;100.00;99871.31;4879095;29;20107;-73
2023/04/15 02:08:41;;;;;;;94.57;50.33;;;;;;;4.49;100.00;99861.41;4895852;29;20063;-74
2023/04/15 02:11:08;;;;;;;93.55;48.97;;;;;;;4.47;100.00;99863.34;4895988;29;20059;-74
2023/04/15 02:13:35;;;;;;;94.47;51.58;;;;;;;4.47;100.00;99855.38;4895681;29;20132;-74
2023/04/15 02:16:02;;;;;;;90.00;50.10;;;;;;;4.55;100.00;99855.50;4895564;29;20083;-73
2023/04/15 02:18:28;;;;;;;95.60;50.65;;;;;;;4.48;100.00;99859.69;4896182;29;20048;-75
2023/04/15 02:20:57;;;;;;;97.03;50.25;;;;;;;4.45;100.00;99862.63;4895650;29;20068;-75
2023/04/15 02:23:24;;;;;;;91.57;50.85;;;;;;;4.51;100.00;99859.41;4896094;29;20059;-74
2023/04/15 02:25:51;;;;;;;95.68;48.72;;;;;;;4.39;100.00;99860.56;4895729;29;20052;-75
2023/04/15 02:28:20;;;;;;;95.32;50.40;;;;;;;4.50;100.00;99861.25;4895180;29;20084;-75
2023/04/15 02:30:51;;;;;;;97.85;51.22;;;;;;;4.44;100.00;99851.19;4894513;29;20052;-74
2023/04/15 02:33:20;;;;;;;104.53;50.33;;;;;;;4.40;100.00;99856.94;4895137;29;20056;-75
2023/04/15 02:35:46;;;;;;;96.50;50.17;;;;;;;4.44;100.00;99858.31;4895222;29;20524;-75
2023/04/15 02:38:15;;;;;;;93.07;49.25;;;;;;;4.48;100.00;99857.88;4895162;29;20052;-75
2023/04/15 02:40:42;;;;;;;103.13;50.17;;;;;;;4.46;100.00;99859.03;4894896;29;20084;-75
2023/04/15 02:43:08;;;;;;;100.43;51.28;;;;;;;4.42;100.00;99858.47;4895143;29;20049;-75
2023/04/15 02:45:35;;;;;;;102.90;51.67;;;;;;;4.37;100.00;99860.66;4894632;29;20059;-75
2023/04/15 02:48:04;;;;;;;103.25;53.30;;;;;;;4.39;100.00;99864.06;4895052;29;20498;-74
2023/04/15 02:50:32;;;;;;;105.63;51.75;;;;;;;4.43;100.00;99860.13;4894984;29;20049;-75
2023/04/15 02:53:00;;;;;;;101.20;51.85;;;;;;;4.48;100.00;99870.31;4894973;29;20052;-75
2023/04/15 02:55:27;;;;;;;97.35;51.20;;;;;;;4.49;100.00;99864.06;4895195;29;20068;-75
2023/04/15 02:57:54;;;;;;;104.93;52.03;;;;;;;4.49;100.00;99859.56;4895554;29;20128;-74
2023/04/15 03:00:24;;;;;;;101.03;50.35;;;;;;;4.53;100.00;99857.47;4895174;29;20096;-74
2023/04/15 03:02:55;;;;;;;101.97;52.63;;;;;;;4.57;100.00;99869.47;4909007;29;20398;-74
2023/04/15 03:05:25;;;;;;;95.90;50.05;;;;;;;4.54;100.00;99867.09;4914343;29;20107;-74
2023/04/15 03:07:51;;;;;;;93.57;49.67;;;;;;;4.58;100.00;99863.19;4913977;29;20083;-74
2023/04/15 03:10:19;;;;;;;95.28;48.00;;;;;;;4.61;100.00;99864.72;4912869;29;20516;-74
2023/04/15 03:12:45;;;;;;;91.78;48.63;;;;;;;4.59;100.00;99867.53;4913599;29;20055;-75
2023/04/15 03:15:12;;;;;;;96.97;47.67;;;;;;;4.55;100.00;99860.81;4914121;29;20051;-75
2023/04/15 03:17:38;;;;;;;93.38;48.42;;;;;;;4.56;100.00;99867.81;4910701;29;20044;-74
2023/04/15 03:20:06;;;;;;;100.78;49.50;;;;;;;4.62;100.00;99856.59;4913597;29;20048;-75
2023/04/15 03:22:32;;;;;;;90.30;47.60;;;;;;;4.62;100.00;99866.38;4913722;29;20055;-75
2023/04/15 03:24:59;;;;;;;92.95;47.20;;;;;;;4.70;100.00;99872.69;4912989;29;20127;-75
2023/04/15 03:27:25;;;;;;;86.28;46.58;;;;;;;4.68;100.00;99871.97;4914383;29;20055;-75
2023/04/15 03:29:52;;;;;;;87.68;47.20;;;;;;;4.68;100.00;99871.97;4913868;29;20139;-75
2023/04/15 03:32:19;;;;;;;94.22;47.15;;;;;;;4.66;100.00;99871.28;4913769;29;20058;-75
2023/04/15 03:34:45;;;;;;;87.60;47.10;;;;;;;4.66;100.00;99870.44;4913204;29;20104;-75
2023/04/15 03:37:12;;;;;;;90.05;47.33;;;;;;;4.63;100.00;99873.41;4913663;29;20058;-75
2023/04/15 03:39:38;;;;;;;86.07;45.95;;;;;;;4.68;100.00;99873.78;4913395;29;20056;-75
2023/04/15 03:42:05;;;;;;;86.55;46.17;;;;;;;4.65;100.00;99868.75;4913980;29;20044;-75
2023/04/15 03:44:32;;;;;;;85.65;47.28;;;;;;;4.65;100.00;99863.44;4916493;29;20048;-75
2023/04/15 03:46:58;;;;;;;90.47;47.08;;;;;;;4.62;100.00;99869.03;4915456;29;20142;-74
2023/04/15 03:49:25;;;;;;;85.97;45.22;;;;;;;4.68;100.00;99869.31;4898864;29;20429;-75
2023/04/15 03:51:52;;;;;;;87.80;46.08;;;;;;;4.69;100.00;99870.16;4897443;29;20049;-74
2023/04/15 03:54:18;;;;;;;92.63;46.67;;;;;;;4.68;100.00;99879.94;4899116;29;20131;-74
2023/04/15 03:56:45;;;;;;;82.32;44.70;;;;;;;4.69;100.00;99872.81;4898381;29;20052;-74
2023/04/15 03:59:11;;;;;;;84.28;44.88;;;;;;;4.75;100.00;99877.56;4897711;29;20076;-75
2023/04/15 04:01:38;;;;;;;79.05;43.20;;;;;;;4.74;100.00;99876.72;4903166;29;20420;-75
2023/04/15 04:04:05;;;;;;;73.50;41.92;;;;;;;4.82;100.00;99882.16;4917432;29;20100;-75
2023/04/15 04:06:32;;;;;;;79.30;43.65;;;;;;;4.83;100.00;99877.66;4917151;29;20181;-75
2023/04/15 04:09:00;;;;;;;79.90;42.80;;;;;;;4.81;100.00;99877.00;4917380;29;20060;-75
2023/04/15 04:11:27;;;;;;;78.70;41.85;;;;;;;4.87;100.00;99880.88;4917201;29;20056;-75
2023/04/15 04:13:53;;;;;;;76.82;42.75;;;;;;;4.85;100.00;99882.84;4900384;29;20047;-75
2023/04/15 04:16:20;;;;;;;80.97;42.00;;;;;;;4.84;100.00;99881.19;4897902;29;20980;-75
2023/04/15 04:18:47;;;;;;;76.00;39.97;;;;;;;4.78;100.00;99882.59;4897768;29;20072;-75
2023/04/15 04:21:13;;;;;;;78.72;41.95;;;;;;;4.84;100.00;99889.16;4897948;29;20528;-75
2023/04/15 04:23:40;;;;;;;72.53;40.22;;;;;;;4.84;100.00;99886.50;4896069;29;20561;-75
2023/04/15 04:26:07;;;;;;;87.35;43.17;;;;;;;4.82;100.00;99892.78;4897482;29;20137;-75
2023/04/15 04:28:34;;;;;;;73.03;41.45;;;;;;;4.82;100.00;99889.28;4896592;29;20137;-75
2023/04/15 04:31:01;;;;;;;72.75;40.88;;;;;;;4.86;100.00;99882.69;4897707;29;20049;-75
2023/04/15 04:33:27;;;;;;;77.53;40.17;;;;;;;4.89;100.00;99887.72;4897447;29;20076;-75
2023/04/15 04:35:54;;;;;;;72.20;41.60;;;;;;;4.91;100.00;99879.63;4897325;29;20045;-75
2023/04/15 04:38:20;;;;;;;66.75;40.38;;;;;;;4.89;100.00;99884.25;4896483;29;20061;-75
2023/04/15 04:40:47;;;;;;;74.88;41.55;;;;;;;4.94;100.00;99889.97;4896428;29;20056;-75
2023/04/15 04:43:14;;;;;;;68.20;40.50;;;;;;;4.94;100.00;99884.66;4896952;29;20048;-75
2023/04/15 04:45:41;;;;;;;66.72;39.28;;;;;;;4.99;100.00;99885.03;4896731;29;20064;-75
2023/04/15 04:48:09;;;;;;;69.72;37.15;;;;;;;4.95;100.00;99886.31;4896724;29;20072;-75
2023/04/15 04:50:36;;;;;;;63.78;37.40;;;;;;;4.91;100.00;99896.41;4896750;29;20425;-75
2023/04/15 04:53:02;;;;;;;66.15;39.25;;;;;;;5.00;100.00;99900.00;4897393;29;20493;-75
2023/04/15 04:55:30;;;;;;;66.05;36.85;;;;;;;5.01;100.00;99899.88;4896443;29;20050;-75
2023/04/15 04:57:57;;;;;;;69.13;37.92;;;;;;;5.03;100.00;99899.72;4897195;29;20136;-75
2023/04/15 05:00:24;;;;;;;60.28;35.67;;;;;;;5.10;100.00;99907.97;4896738;29;20070;-75
2023/04/15 05:02:50;;;;;;;59.35;34.58;;;;;;;5.01;100.00;99899.88;4911471;29;20052;-75
2023/04/15 05:05:17;;;;;;;59.53;35.97;;;;;;;5.03;100.00;99902.38;4915615;29;20100;-75
2023/04/15 05:07:44;;;;;;;65.72;35.28;;;;;;;5.06;100.00;99899.44;4915807;29;20079;-75
2023/04/15 05:10:10;;;;;;;55.42;33.35;;;;;;;5.03;100.00;99905.03;4915325;29;20071;-75
2023/04/15 05:12:37;;;;;;;59.83;32.92;;;;;;;5.08;100.00;99913.44;4899210;29;20140;-75
2023/04/15 05:15:05;;;;;;;57.30;32.22;;;;;;;5.14;100.00;99906.69;4896706;29;20135;-75
2023/04/15 05:17:34;;;;;;;55.92;33.60;;;;;;;5.16;100.00;99908.22;4896700;29;20060;-75
2023/04/15 05:20:02;;;;;;;52.25;32.13;;;;;;;5.08;100.00;99908.13;4896427;29;20060;-75
2023/04/15 05:22:28;;;;;;;56.13;32.35;;;;;;;5.15;100.00;99916.34;4896871;29;20131;-75
2023/04/15 05:24:57;;;;;;;55.30;32.33;;;;;;;5.19;100.00;99918.56;4896675;29;20493;-75
2023/04/15 05:27:23;;;;;;;53.85;32.80;;;;;;;5.20;100.00;99917.56;4895294;29;20063;-75
2023/04/15 05:29:50;;;;;;;49.47;30.83;;;;;;;5.17;100.00;99917.88;4897241;29;20076;-75
2023/04/15 05:32:17;;;;;;;51.63;31.05;;;;;;;5.11;100.00;99922.91;4895951;29;20071;-75
2023/04/15 05:34:43;;;;;;;47.65;29.75;;;;;;;5.16;100.00;99926.00;4897064;29;20056;-76
2023/04/15 05:37:10;;;;;;;49.50;31.00;;;;;;;5.13;100.00;99921.81;4897471;29;20057;-75
2023/04/15 05:39:37;;;;;;;50.83;29.92;;;;;;;5.19;100.00;99921.22;4896358;29;20044;-75
2023/04/15 05:42:04;;;;;;;46.00;28.88;;;;;;;5.17;100.00;99923.19;4897563;29;20052;-76
2023/04/15 05:44:31;;;;;;;40.88;26.77;;;;;;;5.15;100.00;99933.16;4887735;29;20049;-76
2023/04/15 05:46:58;;;;;;;46.38;28.48;;;;;;;5.16;100.00;99926.00;4896771;29;20056;-75
2023/04/15 05:49:25;;;;;;;41.75;25.85;;;;;;;5.15;100.00;99921.69;4896343;29;20048;-75
2023/04/15 05:51:51;;;;;;;39.20;25.20;;;;;;;5.22;100.00;99920.94;4896313;29;20052;-76
2023/04/15 05:54:18;;;;;;;38.75;26.75;;;;;;;5.33;100.00;99919.91;4896370;29;20569;-74
2023/04/15 05:56:45;;;;;;;39.95;26.05;;;;;;;5.42;100.00;99919.06;4899017;29;20045;-75
2023/04/15 05:59:12;;;;;;;40.25;25.08;;;;;;;5.45;100.00;99931.19;4896399;29;20083;-75
2023/04/15 06:01:38;;;;;;;34.72;24.00;;;;;;;5.39;100.00;99922.00;4901467;29;20138;-75
2023/04/15 06:04:05;;;;;;;38.47;24.15;;;;;;;5.43;100.00;99922.56;4915138;29;20052;-75
2023/04/15 06:06:32;;;;;;;34.97;22.80;;;;;;;5.43;100.00;99917.22;4898920;29;20051;-75
2023/04/15 06:08:59;;;;;;;39.03;22.33;;;;;;;5.47;100.00;99923.94;4916005;29;20051;-75
2023/04/15 06:11:26;;;;;;;35.17;23.05;;;;;;;5.54;100.00;99927.66;4915200;29;20083;-75
2023/04/15 06:13:54;;;;;;;32.90;21.88;;;;;;;5.53;100.00;99934.00;4915703;29;20092;-75
2023/04/15 06:16:21;;;;;;;36.33;23.00;;;;;;;5.51;100.00;99930.63;4915231;29;20074;-75
2023/04/15 06:18:48;;;;;;;32.15;22.20;;;;;;;5.53;100.00;99928.66;4916175;29;20052;-74
2023/04/15 06:21:15;;;;;;;32.38;21.90;;;;;;;5.50;100.00;99928.97;4913166;29;20052;-76
2023/04/15 06:23:41;;;;;;;36.80;22.27;;;;;;;5.56;100.00;99928.38;4922809;29;20051;-75
2023/04/15 06:26:08;;;;;;;31.40;20.13;;;;;;;5.58;100.00;99928.22;4922591;29;20433;-74
2023/04/15 06:28:35;;;;;;;35.33;21.10;;;;;;;5.68;100.00;99937.00;4922289;29;20048;-75
2023/04/15 06:31:02;;;;;;;31.05;20.70;;;;;;;5.59;100.00;99932.53;4922963;29;20055;-75
2023/04/15 06:33:28;;;;;;;29.85;19.70;;;;;;;5.66;100.00;99934.47;4923463;29;20044;-74
2023/04/15 06:35:55;;;;;;;30.13;18.90;;;;;;;5.61;100.00;99938.56;4924493;29;20072;-75
2023/04/15 06:38:21;;;;;;;29.42;18.33;;;;;;;5.71;100.00;99939.34;4921702;29;20054;-73
2023/04/15 06:40:48;;;;;;;32.00;19.67;;;;;;;5.80;100.00;99946.44;4920753;29;20079;-74
2023/04/15 06:43:14;;;;;;;31.60;19.92;;;;;;;5.80;100.00;99951.75;4920481;29;20052;-73
2023/04/15 06:45:41;;;;;;;28.45;19.38;;;;;;;5.84;100.00;99952.34;4916430;29;20131;-74
2023/04/15 06:48:07;;;;;;;26.55;17.75;;;;;;;5.92;100.00;99960.41;4914253;29;20104;-75
2023/04/15 06:50:34;;;;;;;29.63;17.83;;;;;;;5.86;100.00;99959.16;4914716;29;20054;-74
2023/04/15 06:53:01;;;;;;;24.15;17.13;;;;;;;5.98;100.00;99959.81;4914543;29;20044;-74
2023/04/15 06:55:28;;;;;;;24.38;17.23;;;;;;;5.92;100.00;99963.06;4913829;29;20051;-75
2023/04/15 06:57:55;;;;;;;27.88;17.35;;;;;;;5.91;100.00;99966.72;4914162;29;20059;-74
2023/04/15 07:00:21;;;;;;;23.88;17.20;;;;;;;5.93;100.00;99973.53;4914358;29;20044;-75
2023/04/15 07:02:48;;;;;;;26.00;16.50;;;;;;;5.90;100.00;99973.00;4912664;29;20495;-73
2023/04/15 07:05:15;;;;;;;24.48;16.83;;;;;;;5.84;100.00;99973.63;4914114;29;20420;-75
2023/04/15 07:07:41;;;;;;;26.75;17.10;;;;;;;6.07;100.00;99974.03;4914556;29;20134;-74
2023/04/15 07:10:08;;;;;;;25.15;17.85;;;;;;;6.07;100.00;99980.19;4914657;29;20416;-75
2023/04/15 07:12:35;;;;;;;26.92;16.70;;;;;;;6.15;100.00;99985.63;4914023;29;20056;-74
2023/04/15 07:15:02;;;;;;;24.98;16.98;;;;;;;6.34;100.00;99986.53;4914102;29;20111;-74
2023/04/15 07:17:28;;;;;;;20.40;15.52;;;;;;;6.37;100.00;99988.88;4913798;29;20397;-75
2023/04/15 07:19:55;;;;;;;26.10;15.43;;;;;;;6.31;100.00;99992.16;4914399;29;20052;-74
2023/04/15 07:22:22;;;;;;;20.98;14.98;;;;;;;6.03;100.00;99997.47;4912930;29;20040;-73
2023/04/15 07:24:48;;;;;;;22.55;15.48;;;;;;;6.03;100.00;99997.47;4913748;29;20492;-73
2023/04/15 07:27:15;;;;;;;24.30;16.23;;;;;;;6.01;100.00;100002.13;4913360;29;20040;-75
2023/04/15 07:29:41;;;;;;;25.70;16.83;;;;;;;5.93;100.00;100004.66;4913571;29;20052;-75
2023/04/15 07:32:09;;;;;;;23.38;15.32;;;;;;;5.91;100.00;100006.66;4914165;29;20055;-75
2023/04/15 07:34:36;;;;;;;24.42;15.35;;;;;;;5.98;100.00;100002.41;4914084;29;20119;-73
2023/04/15 07:37:03;;;;;;;26.20;16.55;;;;;;;5.93;100.00;100010.00;4913794;29;20052;-75
2023/04/15 07:39:30;;;;;;;28.70;17.30;;;;;;;5.95;100.00;100016.00;4914604;29;20052;-73
2023/04/15 07:41:57;;;;;;;31.42;16.08;;;;;;;5.80;100.00;100007.66;4935063;29;20041;-74
2023/04/15 07:44:26;;;;;;;24.40;16.80;;;;;;;5.68;100.00;100017.66;4935665;29;20052;-75
2023/04/15 07:46:52;;;;;;;21.40;15.30;;;;;;;5.79;100.00;100019.28;4936881;29;20135;-72
2023/04/15 07:49:20;;;;;;;21.33;15.30;;;;;;;5.80;100.00;100014.81;4935739;29;20028;-73
2023/04/15 07:51:47;;;;;;;21.25;15.93;;;;;;;5.82;100.00;100016.34;4935688;29;20056;-73
2023/04/15 07:54:15;;;;;;;31.23;16.52;;;;;;;5.79;100.00;100006.00;4935769;29;20048;-74
2023/04/15 07:56:41;;;;;;;24.67;16.35;;;;;;;5.73;100.00;100015.41;4928370;29;20104;-74
2023/04/15 07:59:08;;;;;;;23.85;17.25;;;;;;;5.78;100.00;100014.97;4914192;29;20048;-74
2023/04/15 08:01:35;;;;;;;24.25;16.50;;;;;;;5.82;100.00;100021.66;4913297;29;20059;-75
2023/04/15 08:04:02;;;;;;;25.80;17.13;;;;;;;5.64;100.00;100018.94;4912277;29;20052;-74
2023/04/15 08:06:29;;;;;;;23.58;15.90;;;;;;;5.67;100.00;100023.97;4913180;29;20390;-75
2023/04/15 08:08:56;;;;;;;22.95;16.27;;;;;;;5.76;100.00;100024.91;4913327;29;20104;-75
2023/04/15 08:11:23;;;;;;;26.35;17.02;;;;;;;5.68;100.00;100020.31;4912826;29;20059;-75
2023/04/15 08:13:51;;;;;;;26.65;17.52;;;;;;;5.74;100.00;100027.72;4913158;29;20545;-75
2023/04/15 08:16:19;;;;;;;25.38;16.73;;;;;;;5.69;100.00;100019.31;4913380;29;20533;-74
2023/04/15 08:18:47;;;;;;;26.02;16.42;;;;;;;5.66;100.00;100032.09;4913276;29;20398;-74
2023/04/15 08:21:15;;;;;;;24.13;16.48;;;;;;;5.61;100.00;100032.53;4913191;29;20048;-75
2023/04/15 08:23:42;;;;;;;23.63;16.70;;;;;;;5.67;100.00;100031.97;4907959;29;20079;-75
2023/04/15 08:26:09;;;;;;;23.55;16.10;;;;;;;5.64;100.00;100032.25;4913502;29;20044;-75
2023/04/15 08:28:40;;;;;;;24.33;16.42;;;;;;;5.64;100.00;100040.22;4913764;29;20063;-75
2023/04/15 08:31:07;;;;;;;20.80;16.67;;;;;;;5.60;100.00;100038.00;4915969;29;20054;-75
2023/04/15 08:33:34;;;;;;;22.30;16.75;;;;;;;5.62;100.00;100028.88;4917782;29;20044;-75
2023/04/15 08:36:00;;;;;;;26.05;17.58;;;;;;;5.70;100.00;100044.97;4916761;29;20420;-75
2023/04/15 08:38:27;;;;;;;27.15;16.00;;;;;;;5.57;100.00;100040.97;4917096;29;20052;-75
2023/04/15 08:40:57;;;;;;;26.58;17.55;;;;;;;5.52;100.00;100036.91;4916712;29;20056;-75
2023/04/15 08:43:29;;;;;;;27.42;18.58;;;;;;;5.56;100.00;100048.09;4916656;29;20048;-75
2023/04/15 08:45:59;;;;;;;28.05;18.35;;;;;;;5.59;100.00;100050.44;4917539;29;20062;-75
2023/04/15 08:48:28;;;;;;;25.90;18.67;;;;;;;5.51;100.00;100048.53;4917044;29;20479;-75
2023/04/15 08:50:54;;;;;;;27.50;18.92;;;;;;;5.66;100.00;100051.53;4899946;29;20044;-75
2023/04/15 08:53:21;;;;;;;24.85;18.10;;;;;;;5.60;100.00;100056.63;4916639;29;20052;-75
2023/04/15 08:55:51;;;;;;;27.58;19.30;;;;;;;5.70;100.00;100044.16;4900293;29;20056;-75
2023/04/15 08:58:18;;;;;;;23.92;19.10;;;;;;;5.74;100.00;100049.03;4916042;29;20059;-75
2023/04/15 09:00:45;;;;;;;25.90;18.38;;;;;;;5.66;100.00;100054.22;4916666;29;20048;-75
2023/04/15 09:03:12;;;;;;;26.20;18.63;;;;;;;5.79;100.00;100055.72;4916531;29;20119;-75
2023/04/15 09:05:39;;;;;;;23.50;18.55;;;;;;;5.76;100.00;100052.34;4918032;29;20391;-75
2023/04/15 09:08:05;;;;;;;25.67;17.30;;;;;;;5.71;100.00;100057.28;4917720;29;20135;-75
2023/04/15 09:10:32;;;;;;;25.75;18.55;;;;;;;5.89;100.00;100059.19;4916553;29;20162;-75
2023/04/15 09:13:00;;;;;;;26.45;19.17;;;;;;;5.91;100.00;100059.91;4915934;29;20533;-75
2023/04/15 09:15:28;;;;;;;25.23;19.52;;;;;;;5.85;100.00;100060.47;4916407;29;20052;-73
2023/04/15 09:17:55;;;;;;;25.20;18.45;;;;;;;5.84;100.00;100064.97;4914842;29;20394;-75
2023/04/15 09:20:22;;;;;;;32.83;19.35;;;;;;;5.83;100.00;100073.91;4915321;29;20048;-74
2023/04/15 09:22:50;;;;;;;27.42;18.38;;;;;;;5.77;100.00;100069.19;4917326;29;20055;-78
2023/04/15 09:25:20;;;;;;;27.50;19.40;;;;;;;5.85;100.00;100071.94;4914242;29;20051;-75
2023/04/15 09:27:51;;;;;;;25.50;19.55;;;;;;;5.76;100.00;100072.81;4915392;29;20068;-76
2023/04/15 09:30:17;;;;;;;28.67;19.67;;;;;;;5.85;100.00;100069.28;4915894;29;20063;-76
2023/04/15 09:32:50;;;;;;;27.02;18.88;;;;;;;5.86;100.00;100068.31;4914542;29;20449;-75
2023/04/15 09:35:17;;;;;;;23.80;17.50;;;;;;;5.88;100.00;100078.81;4915722;29;20096;-76
2023/04/15 09:37:43;;;;;;;26.40;19.23;;;;;;;5.90;100.00;100074.16;4916290;29;20391;-76
2023/04/15 09:40:11;;;;;;;24.75;17.25;;;;;;;5.82;100.00;100077.56;4914495;29;20493;-76
2023/04/15 09:42:54;;;;;;;29.30;18.33;;;;;;;5.90;100.00;100082.16;4914049;29;20056;-76
2023/04/15 09:45:22;;;;;;;24.92;17.25;;;;;;;5.91;100.00;100087.34;4914621;29;20055;-76
2023/04/15 09:47:51;;;;;;;24.70;18.00;;;;;;;5.84;100.00;100083.59;4915005;29;20139;-75
2023/04/15 09:50:19;;;;;;;29.80;18.65;;;;;;;5.83;100.00;100084.56;4915463;29;20055;-74
2023/04/15 09:52:46;;;;;;;24.63;18.13;;;;;;;5.95;100.00;100087.91;4915507;29;20052;-76
2023/04/15 09:55:14;;;;;;;30.05;19.55;;;;;;;5.90;100.00;100090.16;4915251;29;20054;-75
2023/04/15 09:57:43;;;;;;;25.10;19.30;;;;;;;5.83;100.00;100094.38;4915220;29;20055;-74
2023/04/15 10:00:10;;;;;;;26.98;19.33;;;;;;;5.82;100.00;100096.19;4916604;29;20096;-74
2023/04/15 10:02:39;;;;;;;26.67;18.50;;;;;;;5.79;100.00;100099.16;4915120;29;20067;-75
2023/04/15 10:05:07;;;;;;;23.80;19.05;;;;;;;5.67;100.00;100106.47;4916462;29;20529;-75
2023/04/15 10:07:34;;;;;;;24.80;18.60;;;;;;;5.74;100.00;100101.41;4915010;29;20055;-74
2023/04/15 10:10:02;;;;;;;24.13;18.75;;;;;;;5.68;100.00;100104.66;4914875;29;20052;-74
2023/04/15 10:12:30;;;;;;;29.80;19.65;;;;;;;5.71;100.00;100102.53;4914757;29;20127;-75
2023/04/15 10:18:42;;;;;;;27.83;19.77;;;;;;;5.64;100.00;100112.06;4915395;29;20051;-74
2023/04/15 10:21:09;;;;;;;26.02;20.38;;;;;;;5.71;100.00;100113.19;4914777;29;20441;-74
2023/04/15 10:23:36;;;;;;;28.75;20.80;;;;;;;5.68;100.00;100113.47;4914295;29;20062;-74
2023/04/15 10:26:03;;;;;;;25.48;19.98;;;;;;;5.66;100.00;100114.59;4914153;29;20054;-75
2023/04/15 10:28:30;;;;;;;24.23;19.60;;;;;;;5.63;100.00;100109.53;4913911;29;20058;-75
2023/04/15 10:30:58;;;;;;;27.70;20.75;;;;;;;5.61;100.00;100115.03;4913403;29;20054;-75
2023/04/15 10:33:26;;;;;;;29.13;21.15;;;;;;;5.67;100.00;100111.78;4912636;29;20052;-75
2023/04/15 10:35:54;;;;;;;27.63;20.05;;;;;;;5.68;100.00;100107.31;4913153;29;20056;-75
2023/04/15 10:38:38;;;;;;;27.83;21.63;;;;;;;5.69;100.00;100112.47;4913952;29;20096;-75
2023/04/15 10:41:33;;;;;;;26.40;20.00;;;;;;;5.72;100.00;100108.69;5134845;23;20028;-73
2023/04/15 10:44:03;;;;;;;27.52;21.05;;;;;;;5.67;100.00;100111.78;4935850;29;20048;-73
2023/04/15 10:46:39;;;;;;;28.92;21.88;;;;;;;5.71;100.00;100110.53;4912885;29;20044;-73
2023/04/15 10:49:11;;;;;;;28.90;21.50;;;;;;;5.63;100.00;100113.06;4913941;29;20470;-73
2023/04/15 10:51:40;;;;;;;27.30;20.48;;;;;;;5.63;100.00;100115.72;4912780;29;20127;-73
2023/04/15 10:54:15;;;;;;;27.70;20.60;;;;;;;5.67;100.00;100116.28;4912198;29;20170;-74
2023/04/15 10:56:42;;;;;;;25.70;21.42;;;;;;;5.66;100.00;100112.75;4911019;29;20132;-73
2023/04/15 10:59:09;;;;;;;28.27;22.17;;;;;;;5.67;100.00;100113.63;4903244;29;20054;-76
2023/04/15 11:01:52;;;;;;;24.20;20.35;;;;;;;5.70;100.00;100116.84;4915846;29;20082;-75
2023/04/15 11:04:59;;;;;;;30.58;21.25;;;;;;;5.76;100.00;100115.41;4931338;29;20048;-76
2023/04/15 11:07:37;;;;;;;27.70;21.33;;;;;;;5.75;100.00;100125.22;4913052;29;20053;-75
2023/04/15 11:10:29;;;;;;;24.45;20.38;;;;;;;5.74;100.00;100122.72;4894889;29;20056;-77
2023/04/15 11:12:58;;;;;;;30.17;21.02;;;;;;;5.66;100.00;100130.56;4897368;29;20386;-73
2023/04/15 11:15:37;;;;;;;25.70;20.10;;;;;;;5.55;100.00;100131.56;4912460;29;20055;-73
2023/04/15 11:18:09;;;;;;;28.85;21.00;;;;;;;5.69;100.00;100135.59;4912752;29;20071;-72
2023/04/15 11:20:37;;;;;;;27.88;20.42;;;;;;;5.70;100.00;100139.94;4912902;29;20461;-71